Lourdes, Canada
Current Conditions -  °F | °C
As of 6:00 AM on Monday 22 Dec 2014 (Local Time) from CYJT Reporting Station
Overcast Overcast  
Wind Chill: 18°   Ceiling: 2100
Heat Index: 27°   Visibility: 15mi
Dew Point: 19°   Wind: 8mph
Humidity: 74%   Direction: 50°NE
Pressure: 30.41"   Gusts: NA
Location:  48.65°N, 58.98°W
Report Text: CYJT 220900Z 05007KT 15SM FEW016 OVC021 M03/M07 A3041 RMK SF2SC6 SLP300
Loading
Personal Weather Stations






























Interactive Weather Map New forecast layout! Learn more

10-Day Weather Forecast

Advertisements
Track Severe Weather on mobile